sensor_id;sensor_type;location;lat;lon;timestamp;P1;durP1;ratioP1;P2;durP2;ratioP2
15504;SDS011;7854;52.184;5.942;2023-07-31T00:04:13;0;;;0;;
15504;SDS011;7854;52.184;5.942;2023-07-31T00:04:13;1;;;0;;
15504;SDS011;7854;52.184;5.942;2023-07-31T00:04:38;0;;;0;;
15504;SDS011;7854;52.184;5.942;2023-07-31T00:06:53;0;;;0;;
15504;SDS011;7854;52.184;5.942;2023-07-31T00:09:07;0;;;0;;
15504;SDS011;7854;52.184;5.942;2023-07-31T00:11:21;0;;;0;;
15504;SDS011;7854;52.184;5.942;2023-07-31T00:13:36;0;;;0;;
15504;SDS011;7854;52.184;5.942;2023-07-31T00:15:50;5;;;0;;
15504;SDS011;7854;52.184;5.942;2023-07-31T00:18:04;3;;;0;;
15504;SDS011;7854;52.184;5.942;2023-07-31T00:20:19;0;;;0;;
15504;SDS011;7854;52.184;5.942;2023-07-31T00:22:34;1;;;0;;
15504;SDS011;7854;52.184;5.942;2023-07-31T00:24:49;0;;;0;;
15504;SDS011;7854;52.184;5.942;2023-07-31T00:27:03;0;;;0;;
15504;SDS011;7854;52.184;5.942;2023-07-31T00:29:17;1;;;0;;
15504;SDS011;7854;52.184;5.942;2023-07-31T00:31:31;2;;;0;;
15504;SDS011;7854;52.184;5.942;2023-07-31T00:33:46;1;;;0;;
15504;SDS011;7854;52.184;5.942;2023-07-31T00:36:00;0;;;0;;
15504;SDS011;7854;52.184;5.942;2023-07-31T00:38:15;0;;;0;;
15504;SDS011;7854;52.184;5.942;2023-07-31T00:40:30;2;;;0;;
15504;SDS011;7854;52.184;5.942;2023-07-31T00:42:44;0;;;0;;
15504;SDS011;7854;52.184;5.942;2023-07-31T00:44:57;2;;;0;;
15504;SDS011;7854;52.184;5.942;2023-07-31T00:47:12;0;;;0;;
15504;SDS011;7854;52.184;5.942;2023-07-31T00:49:26;0;;;0;;
15504;SDS011;7854;52.184;5.942;2023-07-31T00:51:40;0;;;0;;
15504;SDS011;7854;52.184;5.942;2023-07-31T00:53:55;7;;;0;;
15504;SDS011;7854;52.184;5.942;2023-07-31T00:56:09;10;;;1;;
15504;SDS011;7854;52.184;5.942;2023-07-31T00:58:24;0;;;0;;
15504;SDS011;7854;52.184;5.942;2023-07-31T01:00:38;1;;;0;;
15504;SDS011;7854;52.184;5.942;2023-07-31T01:02:53;0;;;0;;
15504;SDS011;7854;52.184;5.942;2023-07-31T01:05:07;1;;;0;;
15504;SDS011;7854;52.184;5.942;2023-07-31T01:07:22;0;;;0;;
15504;SDS011;7854;52.184;5.942;2023-07-31T01:09:37;0;;;0;;
15504;SDS011;7854;52.184;5.942;2023-07-31T01:11:52;1;;;0;;
15504;SDS011;7854;52.184;5.942;2023-07-31T01:14:05;0;;;0;;
15504;SDS011;7854;52.184;5.942;2023-07-31T01:16:19;0;;;0;;
15504;SDS011;7854;52.184;5.942;2023-07-31T01:18:34;0;;;0;;
15504;SDS011;7854;52.184;5.942;2023-07-31T01:20:51;1;;;1;;
15504;SDS011;7854;52.184;5.942;2023-07-31T01:23:08;1;;;1;;
15504;SDS011;7854;52.184;5.942;2023-07-31T01:25:21;4;;;3;;
15504;SDS011;7854;52.184;5.942;2023-07-31T01:27:33;4;;;3;;
15504;SDS011;7854;52.184;5.942;2023-07-31T01:29:47;6;;;4;;
15504;SDS011;7854;52.184;5.942;2023-07-31T01:32:01;9;;;4;;
15504;SDS011;7854;52.184;5.942;2023-07-31T01:34:15;28;;;10;;
15504;SDS011;7854;52.184;5.942;2023-07-31T01:36:30;16;;;8;;
15504;SDS011;7854;52.184;5.942;2023-07-31T01:38:44;16;;;8;;
15504;SDS011;7854;52.184;5.942;2023-07-31T01:40:58;10;;;8;;
15504;SDS011;7854;52.184;5.942;2023-07-31T01:43:12;25;;;11;;
15504;SDS011;7854;52.184;5.942;2023-07-31T01:45:27;29;;;11;;
15504;SDS011;7854;52.184;5.942;2023-07-31T01:47:42;33;;;15;;
15504;SDS011;7854;52.184;5.942;2023-07-31T01:49:56;29;;;11;;
15504;SDS011;7854;52.184;5.942;2023-07-31T01:52:10;26;;;13;;
15504;SDS011;7854;52.184;5.942;2023-07-31T01:54:25;22;;;12;;
15504;SDS011;7854;52.184;5.942;2023-07-31T01:56:39;42;;;15;;
15504;SDS011;7854;52.184;5.942;2023-07-31T01:58:54;27;;;13;;
15504;SDS011;7854;52.184;5.942;2023-07-31T02:01:08;18;;;11;;
15504;SDS011;7854;52.184;5.942;2023-07-31T02:03:23;46;;;16;;
15504;SDS011;7854;52.184;5.942;2023-07-31T02:05:43;13;;;10;;
15504;SDS011;7854;52.184;5.942;2023-07-31T02:07:52;14;;;9;;
15504;SDS011;7854;52.184;5.942;2023-07-31T02:10:06;20;;;10;;
15504;SDS011;7854;52.184;5.942;2023-07-31T02:12:20;23;;;11;;
15504;SDS011;7854;52.184;5.942;2023-07-31T02:14:35;12;;;8;;
15504;SDS011;7854;52.184;5.942;2023-07-31T02:16:49;9;;;7;;
15504;SDS011;7854;52.184;5.942;2023-07-31T02:19:04;11;;;7;;
15504;SDS011;7854;52.184;5.942;2023-07-31T02:21:18;6;;;4;;
15504;SDS011;7854;52.184;5.942;2023-07-31T02:23:32;12;;;4;;
15504;SDS011;7854;52.184;5.942;2023-07-31T02:25:47;12;;;5;;
15504;SDS011;7854;52.184;5.942;2023-07-31T02:28:01;13;;;4;;
15504;SDS011;7854;52.184;5.942;2023-07-31T02:30:15;6;;;3;;
15504;SDS011;7854;52.184;5.942;2023-07-31T02:32:29;3;;;3;;
15504;SDS011;7854;52.184;5.942;2023-07-31T02:34:43;3;;;3;;
15504;SDS011;7854;52.184;5.942;2023-07-31T02:36:57;5;;;4;;
15504;SDS011;7854;52.184;5.942;2023-07-31T02:39:12;6;;;4;;
15504;SDS011;7854;52.184;5.942;2023-07-31T02:41:26;12;;;5;;
15504;SDS011;7854;52.184;5.942;2023-07-31T02:43:41;12;;;7;;
15504;SDS011;7854;52.184;5.942;2023-07-31T02:45:55;8;;;5;;
15504;SDS011;7854;52.184;5.942;2023-07-31T02:48:10;17;;;5;;
15504;SDS011;7854;52.184;5.942;2023-07-31T02:50:24;16;;;7;;
15504;SDS011;7854;52.184;5.942;2023-07-31T02:52:39;6;;;4;;
15504;SDS011;7854;52.184;5.942;2023-07-31T02:54:53;25;;;9;;
15504;SDS011;7854;52.184;5.942;2023-07-31T02:57:07;29;;;8;;
15504;SDS011;7854;52.184;5.942;2023-07-31T02:59:22;47;;;11;;
15504;SDS011;7854;52.184;5.942;2023-07-31T03:01:36;17;;;8;;
15504;SDS011;7854;52.184;5.942;2023-07-31T03:03:50;17;;;8;;
15504;SDS011;7854;52.184;5.942;2023-07-31T03:06:05;41;;;12;;
15504;SDS011;7854;52.184;5.942;2023-07-31T03:08:19;27;;;12;;
15504;SDS011;7854;52.184;5.942;2023-07-31T03:10:34;24;;;10;;
15504;SDS011;7854;52.184;5.942;2023-07-31T03:12:48;35;;;10;;
15504;SDS011;7854;52.184;5.942;2023-07-31T03:15:03;23;;;9;;
15504;SDS011;7854;52.184;5.942;2023-07-31T03:17:17;15;;;8;;
15504;SDS011;7854;52.184;5.942;2023-07-31T03:19:32;20;;;10;;
15504;SDS011;7854;52.184;5.942;2023-07-31T03:21:46;31;;;11;;
15504;SDS011;7854;52.184;5.942;2023-07-31T03:24:02;16;;;8;;
15504;SDS011;7854;52.184;5.942;2023-07-31T03:26:15;21;;;9;;
15504;SDS011;7854;52.184;5.942;2023-07-31T03:28:29;29;;;10;;
15504;SDS011;7854;52.184;5.942;2023-07-31T03:30:43;25;;;10;;
15504;SDS011;7854;52.184;5.942;2023-07-31T03:32:57;32;;;11;;
15504;SDS011;7854;52.184;5.942;2023-07-31T03:35:12;39;;;12;;
15504;SDS011;7854;52.184;5.942;2023-07-31T03:37:25;34;;;11;;
15504;SDS011;7854;52.184;5.942;2023-07-31T03:39:40;20;;;10;;
15504;SDS011;7854;52.184;5.942;2023-07-31T03:41:54;27;;;10;;
15504;SDS011;7854;52.184;5.942;2023-07-31T03:44:09;31;;;11;;
15504;SDS011;7854;52.184;5.942;2023-07-31T03:46:23;46;;;13;;
15504;SDS011;7854;52.184;5.942;2023-07-31T03:48:38;27;;;11;;
15504;SDS011;7854;52.184;5.942;2023-07-31T03:50:52;24;;;12;;
15504;SDS011;7854;52.184;5.942;2023-07-31T03:53:07;64;;;19;;
15504;SDS011;7854;52.184;5.942;2023-07-31T03:55:21;30;;;11;;
15504;SDS011;7854;52.184;5.942;2023-07-31T03:57:36;49;;;12;;
15504;SDS011;7854;52.184;5.942;2023-07-31T03:59:50;26;;;11;;
15504;SDS011;7854;52.184;5.942;2023-07-31T04:02:04;48;;;14;;
15504;SDS011;7854;52.184;5.942;2023-07-31T04:04:19;34;;;13;;
15504;SDS011;7854;52.184;5.942;2023-07-31T04:06:33;49;;;15;;
15504;SDS011;7854;52.184;5.942;2023-07-31T04:08:48;28;;;11;;
15504;SDS011;7854;52.184;5.942;2023-07-31T04:11:03;29;;;12;;
15504;SDS011;7854;52.184;5.942;2023-07-31T04:13:16;48;;;14;;
15504;SDS011;7854;52.184;5.942;2023-07-31T04:15:31;32;;;13;;
15504;SDS011;7854;52.184;5.942;2023-07-31T04:17:45;37;;;11;;
15504;SDS011;7854;52.184;5.942;2023-07-31T04:20:00;35;;;11;;
15504;SDS011;7854;52.184;5.942;2023-07-31T04:22:14;52;;;14;;
15504;SDS011;7854;52.184;5.942;2023-07-31T04:24:29;28;;;12;;
15504;SDS011;7854;52.184;5.942;2023-07-31T04:26:43;23;;;11;;
15504;SDS011;7854;52.184;5.942;2023-07-31T04:28:58;35;;;10;;
15504;SDS011;7854;52.184;5.942;2023-07-31T04:31:12;56;;;16;;
15504;SDS011;7854;52.184;5.942;2023-07-31T04:33:27;20;;;11;;
15504;SDS011;7854;52.184;5.942;2023-07-31T04:35:41;26;;;11;;
15504;SDS011;7854;52.184;5.942;2023-07-31T04:37:56;27;;;12;;
15504;SDS011;7854;52.184;5.942;2023-07-31T04:40:10;50;;;13;;
15504;SDS011;7854;52.184;5.942;2023-07-31T04:42:24;70;;;19;;
15504;SDS011;7854;52.184;5.942;2023-07-31T04:44:39;32;;;13;;
15504;SDS011;7854;52.184;5.942;2023-07-31T04:46:53;23;;;11;;
15504;SDS011;7854;52.184;5.942;2023-07-31T04:49:08;37;;;11;;
15504;SDS011;7854;52.184;5.942;2023-07-31T04:53:37;32;;;11;;
15504;SDS011;7854;52.184;5.942;2023-07-31T04:55:51;24;;;11;;
15504;SDS011;7854;52.184;5.942;2023-07-31T05:00:20;46;;;12;;
15504;SDS011;7854;52.184;5.942;2023-07-31T05:02:34;32;;;12;;
15504;SDS011;7854;52.184;5.942;2023-07-31T05:04:49;38;;;14;;
15504;SDS011;7854;52.184;5.942;2023-07-31T05:07:04;18;;;10;;
15504;SDS011;7854;52.184;5.942;2023-07-31T05:09:18;71;;;15;;
15504;SDS011;7854;52.184;5.942;2023-07-31T05:11:32;34;;;12;;
15504;SDS011;7854;52.184;5.942;2023-07-31T05:13:46;36;;;12;;
15504;SDS011;7854;52.184;5.942;2023-07-31T05:16:01;28;;;12;;
15504;SDS011;7854;52.184;5.942;2023-07-31T05:18:16;27;;;12;;
15504;SDS011;7854;52.184;5.942;2023-07-31T05:20:30;25;;;10;;
15504;SDS011;7854;52.184;5.942;2023-07-31T05:22:44;22;;;10;;
15504;SDS011;7854;52.184;5.942;2023-07-31T05:24:59;26;;;11;;
15504;SDS011;7854;52.184;5.942;2023-07-31T05:27:13;27;;;13;;
15504;SDS011;7854;52.184;5.942;2023-07-31T05:29:28;38;;;11;;
15504;SDS011;7854;52.184;5.942;2023-07-31T05:31:42;35;;;13;;
15504;SDS011;7854;52.184;5.942;2023-07-31T05:33:57;29;;;10;;
15504;SDS011;7854;52.184;5.942;2023-07-31T05:36:11;17;;;10;;
15504;SDS011;7854;52.184;5.942;2023-07-31T05:38:25;17;;;8;;
15504;SDS011;7854;52.184;5.942;2023-07-31T05:40:42;19;;;9;;
15504;SDS011;7854;52.184;5.942;2023-07-31T05:42:54;31;;;12;;
15504;SDS011;7854;52.184;5.942;2023-07-31T05:45:09;24;;;11;;
15504;SDS011;7854;52.184;5.942;2023-07-31T05:47:23;40;;;12;;
15504;SDS011;7854;52.184;5.942;2023-07-31T05:51:52;15;;;10;;
15504;SDS011;7854;52.184;5.942;2023-07-31T05:54:07;30;;;13;;
15504;SDS011;7854;52.184;5.942;2023-07-31T05:56:21;31;;;13;;
15504;SDS011;7854;52.184;5.942;2023-07-31T05:58:35;17;;;10;;
15504;SDS011;7854;52.184;5.942;2023-07-31T06:00:49;29;;;13;;
15504;SDS011;7854;52.184;5.942;2023-07-31T06:03:04;30;;;12;;
15504;SDS011;7854;52.184;5.942;2023-07-31T06:05:18;32;;;15;;
15504;SDS011;7854;52.184;5.942;2023-07-31T06:07:32;27;;;10;;
15504;SDS011;7854;52.184;5.942;2023-07-31T06:09:46;19;;;9;;
15504;SDS011;7854;52.184;5.942;2023-07-31T06:12:02;14;;;8;;
15504;SDS011;7854;52.184;5.942;2023-07-31T06:14:16;20;;;9;;
15504;SDS011;7854;52.184;5.942;2023-07-31T06:16:30;20;;;10;;
15504;SDS011;7854;52.184;5.942;2023-07-31T06:18:45;10;;;9;;
15504;SDS011;7854;52.184;5.942;2023-07-31T06:20:59;19;;;9;;
15504;SDS011;7854;52.184;5.942;2023-07-31T06:23:13;15;;;7;;
15504;SDS011;7854;52.184;5.942;2023-07-31T06:25:28;12;;;8;;
15504;SDS011;7854;52.184;5.942;2023-07-31T06:27:42;8;;;7;;
15504;SDS011;7854;52.184;5.942;2023-07-31T06:29:57;9;;;7;;
15504;SDS011;7854;52.184;5.942;2023-07-31T06:32:11;9;;;7;;
15504;SDS011;7854;52.184;5.942;2023-07-31T06:34:25;7;;;6;;
15504;SDS011;7854;52.184;5.942;2023-07-31T06:36:40;13;;;7;;
15504;SDS011;7854;52.184;5.942;2023-07-31T06:38:54;7;;;6;;
15504;SDS011;7854;52.184;5.942;2023-07-31T06:41:09;9;;;8;;
15504;SDS011;7854;52.184;5.942;2023-07-31T06:43:24;7;;;5;;
15504;SDS011;7854;52.184;5.942;2023-07-31T06:45:38;7;;;6;;
15504;SDS011;7854;52.184;5.942;2023-07-31T06:47:52;6;;;5;;
15504;SDS011;7854;52.184;5.942;2023-07-31T06:50:07;9;;;4;;
15504;SDS011;7854;52.184;5.942;2023-07-31T06:52:21;7;;;6;;
15504;SDS011;7854;52.184;5.942;2023-07-31T06:54:35;11;;;6;;
15504;SDS011;7854;52.184;5.942;2023-07-31T06:56:50;7;;;5;;
15504;SDS011;7854;52.184;5.942;2023-07-31T06:59:05;6;;;5;;
15504;SDS011;7854;52.184;5.942;2023-07-31T07:01:19;10;;;4;;
15504;SDS011;7854;52.184;5.942;2023-07-31T07:03:33;5;;;4;;
15504;SDS011;7854;52.184;5.942;2023-07-31T07:05:48;5;;;4;;
15504;SDS011;7854;52.184;5.942;2023-07-31T07:08:02;5;;;5;;
15504;SDS011;7854;52.184;5.942;2023-07-31T07:10:16;9;;;6;;
15504;SDS011;7854;52.184;5.942;2023-07-31T07:12:31;5;;;4;;
15504;SDS011;7854;52.184;5.942;2023-07-31T07:14:44;4;;;3;;
15504;SDS011;7854;52.184;5.942;2023-07-31T07:16:59;5;;;4;;
15504;SDS011;7854;52.184;5.942;2023-07-31T07:19:14;3;;;3;;
15504;SDS011;7854;52.184;5.942;2023-07-31T07:21:28;5;;;4;;
15504;SDS011;7854;52.184;5.942;2023-07-31T07:23:42;5;;;5;;
15504;SDS011;7854;52.184;5.942;2023-07-31T07:25:57;3;;;3;;
15504;SDS011;7854;52.184;5.942;2023-07-31T07:28:11;4;;;3;;
15504;SDS011;7854;52.184;5.942;2023-07-31T07:30:26;4;;;3;;
15504;SDS011;7854;52.184;5.942;2023-07-31T07:32:40;2;;;2;;
15504;SDS011;7854;52.184;5.942;2023-07-31T07:34:55;3;;;2;;
15504;SDS011;7854;52.184;5.942;2023-07-31T07:37:09;8;;;2;;
15504;SDS011;7854;52.184;5.942;2023-07-31T07:39:24;3;;;3;;
15504;SDS011;7854;52.184;5.942;2023-07-31T07:41:38;4;;;3;;
15504;SDS011;7854;52.184;5.942;2023-07-31T07:43:53;2;;;2;;
15504;SDS011;7854;52.184;5.942;2023-07-31T07:46:07;3;;;2;;
15504;SDS011;7854;52.184;5.942;2023-07-31T07:48:21;2;;;2;;
15504;SDS011;7854;52.184;5.942;2023-07-31T07:52:50;2;;;2;;
15504;SDS011;7854;52.184;5.942;2023-07-31T07:55:05;3;;;2;;
15504;SDS011;7854;52.184;5.942;2023-07-31T07:57:19;3;;;2;;
15504;SDS011;7854;52.184;5.942;2023-07-31T07:59:34;3;;;2;;
15504;SDS011;7854;52.184;5.942;2023-07-31T08:01:48;2;;;1;;
15504;SDS011;7854;52.184;5.942;2023-07-31T08:04:02;2;;;2;;
15504;SDS011;7854;52.184;5.942;2023-07-31T08:08:31;2;;;2;;
15504;SDS011;7854;52.184;5.942;2023-07-31T08:10:46;4;;;2;;
15504;SDS011;7854;52.184;5.942;2023-07-31T08:13:00;1;;;1;;
15504;SDS011;7854;52.184;5.942;2023-07-31T08:15:15;2;;;1;;
15504;SDS011;7854;52.184;5.942;2023-07-31T08:17:29;1;;;1;;
15504;SDS011;7854;52.184;5.942;2023-07-31T08:19:44;2;;;2;;
15504;SDS011;7854;52.184;5.942;2023-07-31T08:21:58;3;;;2;;
15504;SDS011;7854;52.184;5.942;2023-07-31T08:24:13;4;;;2;;
15504;SDS011;7854;52.184;5.942;2023-07-31T08:28:41;3;;;3;;
15504;SDS011;7854;52.184;5.942;2023-07-31T08:30:56;2;;;2;;
15504;SDS011;7854;52.184;5.942;2023-07-31T08:33:10;3;;;3;;
15504;SDS011;7854;52.184;5.942;2023-07-31T08:35:25;2;;;2;;
15504;SDS011;7854;52.184;5.942;2023-07-31T08:37:39;13;;;2;;
15504;SDS011;7854;52.184;5.942;2023-07-31T08:39:54;4;;;3;;
15504;SDS011;7854;52.184;5.942;2023-07-31T08:42:08;3;;;3;;
15504;SDS011;7854;52.184;5.942;2023-07-31T08:44:23;3;;;2;;
15504;SDS011;7854;52.184;5.942;2023-07-31T08:46:37;4;;;4;;
15504;SDS011;7854;52.184;5.942;2023-07-31T08:48:52;2;;;2;;
15504;SDS011;7854;52.184;5.942;2023-07-31T08:51:06;3;;;2;;
15504;SDS011;7854;52.184;5.942;2023-07-31T08:53:19;3;;;3;;
15504;SDS011;7854;52.184;5.942;2023-07-31T08:55:33;4;;;3;;
15504;SDS011;7854;52.184;5.942;2023-07-31T08:57:49;2;;;2;;
15504;SDS011;7854;52.184;5.942;2023-07-31T09:00:04;3;;;2;;
15504;SDS011;7854;52.184;5.942;2023-07-31T09:02:17;3;;;2;;
15504;SDS011;7854;52.184;5.942;2023-07-31T09:04:32;3;;;3;;
15504;SDS011;7854;52.184;5.942;2023-07-31T09:06:46;3;;;3;;
15504;SDS011;7854;52.184;5.942;2023-07-31T09:09:01;3;;;3;;
15504;SDS011;7854;52.184;5.942;2023-07-31T09:11:15;4;;;3;;
15504;SDS011;7854;52.184;5.942;2023-07-31T09:13:30;2;;;2;;
15504;SDS011;7854;52.184;5.942;2023-07-31T09:15:44;11;;;4;;
15504;SDS011;7854;52.184;5.942;2023-07-31T09:17:59;3;;;3;;
15504;SDS011;7854;52.184;5.942;2023-07-31T09:20:13;1;;;1;;
15504;SDS011;7854;52.184;5.942;2023-07-31T09:22:34;4;;;3;;
15504;SDS011;7854;52.184;5.942;2023-07-31T09:24:42;3;;;2;;
15504;SDS011;7854;52.184;5.942;2023-07-31T09:26:57;2;;;2;;
15504;SDS011;7854;52.184;5.942;2023-07-31T09:29:18;6;;;2;;
15504;SDS011;7854;52.184;5.942;2023-07-31T09:31:33;2;;;1;;
15504;SDS011;7854;52.184;5.942;2023-07-31T09:33:46;2;;;2;;
15504;SDS011;7854;52.184;5.942;2023-07-31T09:35:54;2;;;2;;
15504;SDS011;7854;52.184;5.942;2023-07-31T09:38:08;2;;;2;;
15504;SDS011;7854;52.184;5.942;2023-07-31T09:40:26;6;;;3;;
15504;SDS011;7854;52.184;5.942;2023-07-31T09:42:37;2;;;2;;
15504;SDS011;7854;52.184;5.942;2023-07-31T09:44:52;2;;;2;;
15504;SDS011;7854;52.184;5.942;2023-07-31T09:47:06;2;;;2;;
15504;SDS011;7854;52.184;5.942;2023-07-31T09:49:20;2;;;2;;
15504;SDS011;7854;52.184;5.942;2023-07-31T09:51:35;3;;;3;;
15504;SDS011;7854;52.184;5.942;2023-07-31T09:53:49;2;;;2;;
15504;SDS011;7854;52.184;5.942;2023-07-31T09:56:04;3;;;3;;
15504;SDS011;7854;52.184;5.942;2023-07-31T09:58:18;6;;;3;;
15504;SDS011;7854;52.184;5.942;2023-07-31T10:00:33;3;;;3;;
15504;SDS011;7854;52.184;5.942;2023-07-31T10:02:47;3;;;3;;
15504;SDS011;7854;52.184;5.942;2023-07-31T10:05:02;2;;;2;;
15504;SDS011;7854;52.184;5.942;2023-07-31T10:07:17;3;;;3;;
15504;SDS011;7854;52.184;5.942;2023-07-31T10:09:31;5;;;4;;
15504;SDS011;7854;52.184;5.942;2023-07-31T10:11:46;5;;;5;;
15504;SDS011;7854;52.184;5.942;2023-07-31T10:16:14;3;;;3;;
15504;SDS011;7854;52.184;5.942;2023-07-31T10:18:28;5;;;5;;
15504;SDS011;7854;52.184;5.942;2023-07-31T10:20:42;5;;;4;;
15504;SDS011;7854;52.184;5.942;2023-07-31T10:22:57;9;;;5;;
15504;SDS011;7854;52.184;5.942;2023-07-31T10:25:12;6;;;5;;
15504;SDS011;7854;52.184;5.942;2023-07-31T10:27:26;4;;;4;;
15504;SDS011;7854;52.184;5.942;2023-07-31T10:29:41;5;;;4;;
15504;SDS011;7854;52.184;5.942;2023-07-31T10:31:55;8;;;7;;
15504;SDS011;7854;52.184;5.942;2023-07-31T10:34:10;7;;;7;;
15504;SDS011;7854;52.184;5.942;2023-07-31T10:36:23;6;;;6;;
15504;SDS011;7854;52.184;5.942;2023-07-31T10:38:38;7;;;6;;
15504;SDS011;7854;52.184;5.942;2023-07-31T10:40:53;6;;;5;;
15504;SDS011;7854;52.184;5.942;2023-07-31T10:43:07;6;;;6;;
15504;SDS011;7854;52.184;5.942;2023-07-31T10:45:23;7;;;6;;
15504;SDS011;7854;52.184;5.942;2023-07-31T10:47:37;7;;;7;;
15504;SDS011;7854;52.184;5.942;2023-07-31T10:49:50;9;;;8;;
15504;SDS011;7854;52.184;5.942;2023-07-31T10:52:05;8;;;8;;
15504;SDS011;7854;52.184;5.942;2023-07-31T10:54:19;8;;;8;;
15504;SDS011;7854;52.184;5.942;2023-07-31T10:56:37;9;;;8;;
15504;SDS011;7854;52.184;5.942;2023-07-31T11:01:03;11;;;10;;
15504;SDS011;7854;52.184;5.942;2023-07-31T11:03:17;9;;;8;;
15504;SDS011;7854;52.184;5.942;2023-07-31T11:06:03;8;;;8;;
15504;SDS011;7854;52.184;5.942;2023-07-31T11:07:46;8;;;8;;
15504;SDS011;7854;52.184;5.942;2023-07-31T11:09:59;12;;;11;;
15504;SDS011;7854;52.184;5.942;2023-07-31T11:12:14;8;;;7;;
15504;SDS011;7854;52.184;5.942;2023-07-31T11:14:28;10;;;9;;
15504;SDS011;7854;52.184;5.942;2023-07-31T11:16:43;10;;;9;;
15504;SDS011;7854;52.184;5.942;2023-07-31T11:18:57;9;;;8;;
15504;SDS011;7854;52.184;5.942;2023-07-31T11:21:12;7;;;7;;
15504;SDS011;7854;52.184;5.942;2023-07-31T11:23:26;7;;;7;;
15504;SDS011;7854;52.184;5.942;2023-07-31T11:25:41;7;;;6;;
15504;SDS011;7854;52.184;5.942;2023-07-31T11:27:55;6;;;6;;
15504;SDS011;7854;52.184;5.942;2023-07-31T11:30:10;6;;;5;;
15504;SDS011;7854;52.184;5.942;2023-07-31T11:32:24;7;;;7;;
15504;SDS011;7854;52.184;5.942;2023-07-31T11:34:50;7;;;6;;
15504;SDS011;7854;52.184;5.942;2023-07-31T11:36:53;6;;;5;;
15504;SDS011;7854;52.184;5.942;2023-07-31T11:39:08;6;;;5;;
15504;SDS011;7854;52.184;5.942;2023-07-31T11:41:22;5;;;5;;
15504;SDS011;7854;52.184;5.942;2023-07-31T11:43:36;6;;;5;;
15504;SDS011;7854;52.184;5.942;2023-07-31T11:45:52;5;;;4;;
15504;SDS011;7854;52.184;5.942;2023-07-31T11:48:05;4;;;4;;
15504;SDS011;7854;52.184;5.942;2023-07-31T11:50:20;4;;;4;;
15504;SDS011;7854;52.184;5.942;2023-07-31T11:52:36;3;;;3;;
15504;SDS011;7854;52.184;5.942;2023-07-31T11:54:48;3;;;3;;
15504;SDS011;7854;52.184;5.942;2023-07-31T11:57:03;2;;;2;;
15504;SDS011;7854;52.184;5.942;2023-07-31T11:59:17;2;;;2;;
15504;SDS011;7854;52.184;5.942;2023-07-31T12:01:31;2;;;2;;
15504;SDS011;7854;52.184;5.942;2023-07-31T12:03:46;3;;;3;;
15504;SDS011;7854;52.184;5.942;2023-07-31T12:06:01;2;;;2;;
15504;SDS011;7854;52.184;5.942;2023-07-31T12:08:15;2;;;2;;
15504;SDS011;7854;52.184;5.942;2023-07-31T12:10:30;3;;;3;;
15504;SDS011;7854;52.184;5.942;2023-07-31T12:12:44;4;;;3;;
15504;SDS011;7854;52.184;5.942;2023-07-31T12:14:59;3;;;3;;
15504;SDS011;7854;52.184;5.942;2023-07-31T12:17:13;3;;;3;;
15504;SDS011;7854;52.184;5.942;2023-07-31T12:19:27;3;;;3;;
15504;SDS011;7854;52.184;5.942;2023-07-31T12:21:42;4;;;3;;
15504;SDS011;7854;52.184;5.942;2023-07-31T12:23:56;4;;;4;;
15504;SDS011;7854;52.184;5.942;2023-07-31T12:26:11;4;;;4;;
15504;SDS011;7854;52.184;5.942;2023-07-31T12:28:25;4;;;4;;
15504;SDS011;7854;52.184;5.942;2023-07-31T12:30:40;6;;;4;;
15504;SDS011;7854;52.184;5.942;2023-07-31T12:32:54;4;;;4;;
15504;SDS011;7854;52.184;5.942;2023-07-31T12:35:08;8;;;7;;
15504;SDS011;7854;52.184;5.942;2023-07-31T12:37:23;7;;;5;;
15504;SDS011;7854;52.184;5.942;2023-07-31T12:39:37;6;;;5;;
15504;SDS011;7854;52.184;5.942;2023-07-31T12:44:06;6;;;6;;
15504;SDS011;7854;52.184;5.942;2023-07-31T12:46:21;6;;;6;;
15504;SDS011;7854;52.184;5.942;2023-07-31T12:48:35;6;;;6;;
15504;SDS011;7854;52.184;5.942;2023-07-31T12:50:49;7;;;7;;
15504;SDS011;7854;52.184;5.942;2023-07-31T12:53:04;7;;;7;;
15504;SDS011;7854;52.184;5.942;2023-07-31T12:55:19;5;;;4;;
15504;SDS011;7854;52.184;5.942;2023-07-31T12:57:33;6;;;6;;
15504;SDS011;7854;52.184;5.942;2023-07-31T12:59:47;5;;;4;;
15504;SDS011;7854;52.184;5.942;2023-07-31T13:02:01;3;;;3;;
15504;SDS011;7854;52.184;5.942;2023-07-31T13:04:16;5;;;5;;
15504;SDS011;7854;52.184;5.942;2023-07-31T13:06:30;3;;;3;;
15504;SDS011;7854;52.184;5.942;2023-07-31T13:08:45;4;;;4;;
15504;SDS011;7854;52.184;5.942;2023-07-31T13:10:59;3;;;3;;
15504;SDS011;7854;52.184;5.942;2023-07-31T13:13:14;4;;;4;;
15504;SDS011;7854;52.184;5.942;2023-07-31T13:15:29;3;;;3;;
15504;SDS011;7854;52.184;5.942;2023-07-31T13:17:43;3;;;3;;
15504;SDS011;7854;52.184;5.942;2023-07-31T13:19:57;2;;;2;;
15504;SDS011;7854;52.184;5.942;2023-07-31T13:22:12;3;;;3;;
15504;SDS011;7854;52.184;5.942;2023-07-31T13:24:26;3;;;3;;
15504;SDS011;7854;52.184;5.942;2023-07-31T13:26:40;3;;;3;;
15504;SDS011;7854;52.184;5.942;2023-07-31T13:28:55;4;;;3;;
15504;SDS011;7854;52.184;5.942;2023-07-31T13:31:08;4;;;3;;
15504;SDS011;7854;52.184;5.942;2023-07-31T13:33:23;4;;;4;;
15504;SDS011;7854;52.184;5.942;2023-07-31T13:35:37;4;;;4;;
15504;SDS011;7854;52.184;5.942;2023-07-31T13:37:54;4;;;3;;
15504;SDS011;7854;52.184;5.942;2023-07-31T13:40:07;4;;;4;;
15504;SDS011;7854;52.184;5.942;2023-07-31T13:42:21;4;;;4;;
15504;SDS011;7854;52.184;5.942;2023-07-31T13:44:35;5;;;4;;
15504;SDS011;7854;52.184;5.942;2023-07-31T13:46:50;4;;;3;;
15504;SDS011;7854;52.184;5.942;2023-07-31T13:49:04;4;;;4;;
15504;SDS011;7854;52.184;5.942;2023-07-31T13:51:19;3;;;3;;
15504;SDS011;7854;52.184;5.942;2023-07-31T13:53:33;5;;;5;;
15504;SDS011;7854;52.184;5.942;2023-07-31T13:55:47;6;;;5;;
15504;SDS011;7854;52.184;5.942;2023-07-31T13:58:02;5;;;4;;
15504;SDS011;7854;52.184;5.942;2023-07-31T14:02:31;5;;;4;;
15504;SDS011;7854;52.184;5.942;2023-07-31T14:04:45;7;;;6;;
15504;SDS011;7854;52.184;5.942;2023-07-31T14:06:59;6;;;5;;
15504;SDS011;7854;52.184;5.942;2023-07-31T14:09:14;6;;;5;;
15504;SDS011;7854;52.184;5.942;2023-07-31T14:11:30;6;;;6;;
15504;SDS011;7854;52.184;5.942;2023-07-31T14:13:44;6;;;6;;
15504;SDS011;7854;52.184;5.942;2023-07-31T14:15:57;6;;;6;;
15504;SDS011;7854;52.184;5.942;2023-07-31T14:18:12;8;;;8;;
15504;SDS011;7854;52.184;5.942;2023-07-31T14:22:40;6;;;6;;
15504;SDS011;7854;52.184;5.942;2023-07-31T14:24:55;7;;;7;;
15504;SDS011;7854;52.184;5.942;2023-07-31T14:27:10;10;;;9;;
15504;SDS011;7854;52.184;5.942;2023-07-31T14:29:23;6;;;6;;
15504;SDS011;7854;52.184;5.942;2023-07-31T14:31:37;6;;;6;;
15504;SDS011;7854;52.184;5.942;2023-07-31T14:33:51;9;;;8;;
15504;SDS011;7854;52.184;5.942;2023-07-31T14:36:06;9;;;7;;
15504;SDS011;7854;52.184;5.942;2023-07-31T14:38:20;6;;;6;;
15504;SDS011;7854;52.184;5.942;2023-07-31T14:40:35;10;;;8;;
15504;SDS011;7854;52.184;5.942;2023-07-31T14:42:49;6;;;6;;
15504;SDS011;7854;52.184;5.942;2023-07-31T14:45:03;8;;;7;;
15504;SDS011;7854;52.184;5.942;2023-07-31T14:47:18;8;;;7;;
15504;SDS011;7854;52.184;5.942;2023-07-31T14:49:32;11;;;10;;
15504;SDS011;7854;52.184;5.942;2023-07-31T14:51:47;9;;;8;;
15504;SDS011;7854;52.184;5.942;2023-07-31T14:54:01;8;;;7;;
15504;SDS011;7854;52.184;5.942;2023-07-31T14:56:16;8;;;7;;
15504;SDS011;7854;52.184;5.942;2023-07-31T14:58:30;9;;;8;;
15504;SDS011;7854;52.184;5.942;2023-07-31T15:00:45;9;;;9;;
15504;SDS011;7854;52.184;5.942;2023-07-31T15:02:59;9;;;8;;
15504;SDS011;7854;52.184;5.942;2023-07-31T15:05:13;8;;;7;;
15504;SDS011;7854;52.184;5.942;2023-07-31T15:07:28;6;;;6;;
15504;SDS011;7854;52.184;5.942;2023-07-31T15:09:42;9;;;9;;
15504;SDS011;7854;52.184;5.942;2023-07-31T15:11:57;6;;;5;;
15504;SDS011;7854;52.184;5.942;2023-07-31T15:14:11;5;;;5;;
15504;SDS011;7854;52.184;5.942;2023-07-31T15:16:25;6;;;5;;
15504;SDS011;7854;52.184;5.942;2023-07-31T15:18:40;11;;;7;;
15504;SDS011;7854;52.184;5.942;2023-07-31T15:20:54;7;;;6;;